Time;durP1;ratioP1;P1;durP2;ratioP2;P2;SDS_P1;SDS_P2;PMS_P1;PMS_P2;Temp;Humidity;BMP_temperature;BMP_pressure;BME280_temperature;BME280_humidity;BME280_pressure;Samples;Min_cycle;Max_cycle;Signal;HPM_P1;HPM_P2
2023/05/15 07:07:58;;;;;;;4.97;1.08;;;9.20;99.90;;;;;;6390520;22;20017;-95
2023/05/15 07:10:26;;;;;;;8.82;1.20;;;9.30;99.90;;;;;;6363920;22;20006;-94
2023/05/15 07:12:52;;;;;;;6.32;1.23;;;9.30;99.90;;;;;;6311491;22;20022;-95
2023/05/15 07:15:20;;;;;;;6.85;1.17;;;9.40;99.90;;;;;;6331320;22;20007;-96
2023/05/15 07:17:50;;;;;;;4.53;0.93;;;9.50;99.90;;;;;;6330671;22;20022;-96
2023/05/15 07:20:18;;;;;;;8.25;1.35;;;9.60;99.90;;;;;;6332959;22;19979;-96
2023/05/15 07:22:44;;;;;;;9.75;1.40;;;9.70;99.90;;;;;;6333458;22;20015;-96
2023/05/15 07:25:12;;;;;;;8.05;1.48;;;9.70;99.90;;;;;;6334591;22;20007;-96
2023/05/15 07:32:51;;;;;;;4.10;0.63;;;9.90;99.90;;;;;;6342059;22;20019;-95
2023/05/15 07:40:34;;;;;;;5.18;1.20;;;10.00;99.90;;;;;;6318037;22;20020;-95
2023/05/15 07:43:05;;;;;;;5.93;1.40;;;10.10;99.90;;;;;;6325111;22;20011;-96
2023/05/15 07:45:30;;;;;;;2.42;1.00;;;10.10;99.90;;;;;;6368711;22;20018;-95
2023/05/15 07:47:57;;;;;;;4.13;0.82;;;10.20;99.90;;;;;;6366324;22;20058;-95
2023/05/15 07:50:26;;;;;;;7.03;0.98;;;10.30;99.90;;;;;;6365253;22;20006;-96
2023/05/15 07:52:54;;;;;;;4.35;0.70;;;10.30;99.90;;;;;;6369588;22;19983;-96
2023/05/15 07:55:23;;;;;;;5.70;1.80;;;10.40;99.90;;;;;;6370601;22;19991;-96
2023/05/15 08:09:22;;;;;;;8.18;1.13;;;10.80;96.40;;;;;;6372122;22;20162;-96
2023/05/15 08:22:36;;;;;;;2.65;0.70;;;11.40;93.40;;;;;;6354857;22;20030;-95
2023/05/15 08:25:06;;;;;;;4.13;0.45;;;11.50;92.30;;;;;;6366263;22;19999;-95
2023/05/15 08:27:32;;;;;;;2.35;0.45;;;11.60;91.90;;;;;;6362650;22;20006;-95
2023/05/15 08:29:57;;;;;;;3.15;0.77;;;11.60;90.80;;;;;;6364094;22;20013;-96
2023/05/15 08:32:44;;;;;;;3.22;0.73;;;11.80;89.90;;;;;;6365404;22;20066;-95
2023/05/15 09:06:43;;;;;;;2.60;0.63;;;12.80;79.50;;;;;;6367801;22;20017;-94
2023/05/15 10:54:03;;;;;;;1.88;0.57;;;17.00;64.10;;;;;;6366280;22;20017;-94
2023/05/15 10:56:32;;;;;;;3.78;0.50;;;17.10;63.60;;;;;;6304068;22;20007;-94
2023/05/15 10:59:08;;;;;;;4.57;0.68;;;17.20;63.40;;;;;;6335462;22;19995;-94
2023/05/15 11:01:39;;;;;;;3.80;0.50;;;17.40;63.20;;;;;;6335664;22;20018;-94
2023/05/15 11:04:14;;;;;;;2.72;0.40;;;17.50;63.20;;;;;;6332375;22;19998;-96
2023/05/15 11:09:41;;;;;;;2.92;0.50;;;17.70;62.30;;;;;;6312940;22;20029;-96
2023/05/15 11:12:10;;;;;;;1.02;0.30;;;17.90;61.70;;;;;;6335183;22;20019;-96
2023/05/15 11:26:04;;;;;;;3.80;0.60;;;17.50;61.30;;;;;;6300957;22;20016;-96
2023/05/15 11:28:40;;;;;;;3.17;0.70;;;17.70;61.20;;;;;;6337230;22;20070;-96
2023/05/15 11:31:06;;;;;;;3.10;1.30;;;17.90;61.10;;;;;;6359853;22;20026;-96
2023/05/15 11:33:33;;;;;;;1.05;0.30;;;18.10;60.40;;;;;;6361070;22;20122;-95
2023/05/15 11:36:04;;;;;;;4.00;0.68;;;18.10;59.90;;;;;;6310542;22;20023;-95
2023/05/15 11:38:38;;;;;;;1.98;0.40;;;18.30;59.60;;;;;;6343123;22;20017;-96
2023/05/15 11:41:16;;;;;;;1.63;0.50;;;18.50;59.20;;;;;;6355942;22;20053;-95
2023/05/15 11:43:43;;;;;;;1.50;0.57;;;18.40;58.50;;;;;;6333438;22;20102;-96
2023/05/15 11:46:13;;;;;;;1.45;0.40;;;18.20;58.20;;;;;;6361994;22;20076;-94
2023/05/15 11:48:46;;;;;;;2.73;0.60;;;18.00;58.70;;;;;;6341759;22;20007;-94
2023/05/15 11:51:22;;;;;;;1.45;0.77;;;18.00;59.00;;;;;;6338899;22;19999;-96
2023/05/15 11:53:53;;;;;;;1.42;0.47;;;18.20;58.90;;;;;;6345688;22;20011;-96
2023/05/15 11:56:24;;;;;;;2.65;0.68;;;18.30;58.40;;;;;;6362860;22;20007;-95
2023/05/15 11:58:53;;;;;;;2.10;0.43;;;18.20;57.90;;;;;;6355166;22;20007;-94
2023/05/15 12:04:28;;;;;;;1.15;0.50;;;17.80;58.00;;;;;;6304568;22;21587;-96
2023/05/15 12:06:55;;;;;;;1.58;0.40;;;17.90;58.00;;;;;;6332102;22;20080;-95
2023/05/15 12:09:26;;;;;;;2.67;0.43;;;18.10;57.10;;;;;;6335483;22;20003;-95
2023/05/15 12:11:55;;;;;;;1.60;0.52;;;18.30;56.40;;;;;;6359301;22;20003;-95
2023/05/15 12:14:28;;;;;;;1.55;0.55;;;18.20;55.50;;;;;;6329572;22;20021;-96
2023/05/15 12:17:01;;;;;;;1.33;0.30;;;18.10;55.50;;;;;;6365572;22;19990;-96
2023/05/15 12:24:41;;;;;;;3.95;1.40;;;18.20;55.50;;;;;;6350885;22;20023;-96
2023/05/15 12:27:08;;;;;;;3.92;0.45;;;18.40;55.60;;;;;;6363322;22;19983;-95
2023/05/15 12:29:36;;;;;;;3.35;0.60;;;18.60;55.40;;;;;;6363691;22;20006;-95
2023/05/15 12:32:03;;;;;;;1.98;0.43;;;18.90;55.40;;;;;;6357148;22;20006;-96
2023/05/15 12:34:34;;;;;;;1.65;0.38;;;19.00;54.80;;;;;;6354259;22;20442;-96
2023/05/15 12:37:00;;;;;;;2.20;0.60;;;19.10;54.90;;;;;;6359529;22;20018;-96
2023/05/15 12:39:27;;;;;;;1.55;0.40;;;19.20;54.80;;;;;;6359365;22;20007;-96
2023/05/15 12:41:56;;;;;;;4.75;0.50;;;19.10;54.10;;;;;;6362524;22;20011;-96
2023/05/15 12:44:26;;;;;;;2.20;0.70;;;18.90;53.90;;;;;;6359889;22;19994;-95
2023/05/15 12:46:56;;;;;;;2.08;0.50;;;18.60;54.50;;;;;;6360118;22;20003;-96
2023/05/15 12:49:23;;;;;;;2.90;0.60;;;18.50;55.10;;;;;;6360310;22;19991;-96
2023/05/15 12:51:51;;;;;;;1.50;0.50;;;18.50;55.50;;;;;;6341119;22;20009;-96
2023/05/15 12:54:19;;;;;;;2.55;0.60;;;18.70;55.40;;;;;;6357638;22;20074;-96
2023/05/15 12:56:47;;;;;;;0.90;0.30;;;19.00;55.00;;;;;;6353908;22;20002;-96
2023/05/15 12:59:15;;;;;;;1.40;0.38;;;19.10;54.00;;;;;;6355617;22;20026;-96
2023/05/15 13:01:41;;;;;;;3.05;0.52;;;19.40;53.60;;;;;;6355418;22;20014;-96
2023/05/15 13:04:08;;;;;;;1.95;0.40;;;19.60;52.90;;;;;;6358756;22;20077;-96
2023/05/15 13:06:36;;;;;;;1.13;0.47;;;19.60;51.80;;;;;;6328785;22;20006;-96
2023/05/15 13:09:02;;;;;;;0.80;0.40;;;19.50;51.60;;;;;;6357069;22;20006;-95
2023/05/15 13:11:31;;;;;;;5.15;0.88;;;19.60;51.70;;;;;;6358372;22;20003;-95
2023/05/15 13:13:58;;;;;;;1.00;0.38;;;19.60;52.20;;;;;;6360484;22;19990;-94
2023/05/15 13:16:28;;;;;;;1.95;0.50;;;19.40;52.10;;;;;;6361078;22;20014;-95
2023/05/15 13:18:57;;;;;;;1.17;0.40;;;19.10;52.30;;;;;;6356786;22;20033;-96
2023/05/15 13:21:23;;;;;;;3.20;1.07;;;19.00;52.60;;;;;;6355522;22;20450;-95
2023/05/15 13:23:50;;;;;;;2.22;0.38;;;19.00;52.70;;;;;;6353399;22;20252;-96
2023/05/15 13:26:19;;;;;;;0.88;0.30;;;19.00;52.20;;;;;;6351869;22;20067;-96
2023/05/15 13:28:45;;;;;;;3.78;0.30;;;18.90;52.00;;;;;;6355447;22;20063;-95
2023/05/15 13:31:11;;;;;;;1.88;0.65;;;18.70;52.00;;;;;;6333106;22;20003;-95
2023/05/15 13:33:38;;;;;;;3.25;0.70;;;18.60;52.60;;;;;;6357469;22;19999;-95
2023/05/15 13:36:05;;;;;;;3.35;0.63;;;18.50;53.20;;;;;;6331828;22;20010;-95
2023/05/15 13:38:32;;;;;;;2.15;0.75;;;18.80;53.90;;;;;;6356314;22;20003;-96
2023/05/15 13:41:02;;;;;;;0.93;0.40;;;19.30;54.10;;;;;;6353882;22;20007;-95
2023/05/15 13:43:28;;;;;;;2.20;0.30;;;19.60;53.20;;;;;;6349481;22;20007;-96
2023/05/15 13:45:56;;;;;;;1.95;0.50;;;19.50;52.60;;;;;;6354889;22;20046;-96
2023/05/15 13:48:23;;;;;;;2.60;0.60;;;19.50;52.80;;;;;;6333437;22;20007;-96
2023/05/15 13:50:52;;;;;;;2.70;0.38;;;19.60;52.90;;;;;;6352051;22;20041;-96
2023/05/15 13:53:18;;;;;;;0.85;0.40;;;19.80;52.60;;;;;;6350785;22;20010;-96
2023/05/15 13:55:45;;;;;;;1.30;0.50;;;20.00;52.10;;;;;;6348540;22;19999;-96
2023/05/15 13:58:12;;;;;;;0.73;0.40;;;19.90;51.60;;;;;;6324488;22;20029;-96
2023/05/15 14:00:42;;;;;;;1.20;0.40;;;19.70;51.60;;;;;;6353868;22;20006;-94
2023/05/15 14:03:09;;;;;;;1.35;0.40;;;19.40;52.00;;;;;;6351654;22;20003;-94
2023/05/15 14:05:35;;;;;;;2.92;0.68;;;19.10;52.30;;;;;;6330053;22;20006;-95
2023/05/15 14:08:02;;;;;;;1.02;0.40;;;18.80;52.70;;;;;;6358590;22;20011;-95
2023/05/15 14:10:30;;;;;;;3.88;0.88;;;18.60;53.10;;;;;;6355531;22;20022;-96
2023/05/15 14:12:56;;;;;;;1.15;0.47;;;18.60;53.50;;;;;;6331445;22;20038;-95
2023/05/15 14:15:22;;;;;;;1.80;0.40;;;18.70;53.20;;;;;;6355374;22;19999;-94
2023/05/15 14:17:49;;;;;;;1.80;0.55;;;18.90;52.80;;;;;;6355254;22;20013;-96
2023/05/15 14:20:15;;;;;;;3.58;1.38;;;18.80;52.90;;;;;;6350624;22;20032;-95
2023/05/15 14:22:42;;;;;;;1.10;0.50;;;18.70;53.10;;;;;;6355421;22;19994;-96
2023/05/15 14:25:09;;;;;;;1.58;0.50;;;18.50;53.30;;;;;;6355065;22;19998;-96
2023/05/15 14:27:34;;;;;;;1.60;0.50;;;18.20;53.50;;;;;;6359671;22;19995;-96
2023/05/15 14:30:00;;;;;;;2.53;0.40;;;18.00;53.90;;;;;;6366610;22;20025;-96
2023/05/15 14:32:28;;;;;;;1.48;0.57;;;17.80;54.50;;;;;;6365745;22;20015;-96
2023/05/15 14:34:58;;;;;;;4.22;1.38;;;17.50;55.10;;;;;;6365848;22;19999;-96
2023/05/15 14:37:25;;;;;;;3.65;0.75;;;17.40;55.70;;;;;;6366383;22;19986;-96
2023/05/15 14:39:51;;;;;;;1.42;0.40;;;17.50;56.20;;;;;;6366050;22;20024;-96
2023/05/15 14:42:22;;;;;;;6.72;0.70;;;17.80;56.40;;;;;;6357007;22;20014;-96
2023/05/15 14:44:48;;;;;;;0.90;0.45;;;18.20;56.10;;;;;;6356349;22;20013;-96
2023/05/15 14:47:15;;;;;;;1.27;0.60;;;18.70;55.60;;;;;;6350933;22;20003;-96
2023/05/15 14:49:44;;;;;;;2.47;0.50;;;19.00;54.80;;;;;;6352708;22;19995;-96
2023/05/15 14:52:14;;;;;;;1.58;0.70;;;18.90;54.20;;;;;;6364355;22;20041;-96
2023/05/15 14:54:57;;;;;;;1.98;0.60;;;18.80;54.10;;;;;;6353437;22;20003;-93
2023/05/15 14:57:23;;;;;;;1.90;0.50;;;18.70;53.70;;;;;;6355476;22;20057;-96
2023/05/15 14:59:53;;;;;;;6.25;0.73;;;18.30;53.80;;;;;;6358171;22;19999;-96
2023/05/15 15:02:23;;;;;;;1.03;0.37;;;18.10;54.30;;;;;;6356397;22;20015;-96
2023/05/15 15:04:50;;;;;;;1.80;0.43;;;17.90;55.00;;;;;;6356963;22;19983;-96
2023/05/15 15:07:19;;;;;;;2.00;0.50;;;17.90;55.80;;;;;;6332641;22;20073;-96
2023/05/15 15:09:50;;;;;;;1.13;0.40;;;17.90;55.80;;;;;;6323609;22;20018;-96
2023/05/15 15:12:19;;;;;;;2.10;0.30;;;17.80;55.70;;;;;;6317551;22;20011;-96
2023/05/15 15:14:47;;;;;;;3.95;0.90;;;17.80;56.00;;;;;;6298449;22;20045;-95
2023/05/15 15:17:18;;;;;;;3.85;0.60;;;17.90;56.30;;;;;;6292895;22;20006;-96
2023/05/15 15:19:44;;;;;;;5.25;0.90;;;18.10;56.50;;;;;;6289706;22;20022;-95
2023/05/15 15:22:10;;;;;;;3.00;0.60;;;18.40;56.20;;;;;;6289777;22;20018;-96
2023/05/15 15:24:36;;;;;;;2.38;0.60;;;18.70;55.80;;;;;;6291474;22;20004;-96
2023/05/15 15:27:02;;;;;;;4.00;0.70;;;19.00;55.50;;;;;;6288127;22;20026;-95
2023/05/15 15:29:27;;;;;;;2.13;0.63;;;19.20;55.10;;;;;;6296344;22;20400;-95
2023/05/15 15:31:53;;;;;;;4.60;0.57;;;19.20;55.00;;;;;;6306308;22;20007;-96
2023/05/15 15:34:19;;;;;;;3.42;0.70;;;19.20;55.50;;;;;;6290567;22;20057;-96
2023/05/15 15:36:45;;;;;;;1.88;0.60;;;19.40;55.70;;;;;;6292829;22;20004;-96
2023/05/15 15:39:11;;;;;;;1.45;0.50;;;19.60;54.80;;;;;;6292827;22;20014;-96
2023/05/15 15:41:39;;;;;;;1.90;0.40;;;19.70;54.10;;;;;;6291287;22;20015;-96
2023/05/15 15:44:06;;;;;;;3.20;0.60;;;19.70;52.70;;;;;;6290614;22;20010;-96
2023/05/15 15:46:32;;;;;;;2.47;0.65;;;19.60;52.60;;;;;;6289127;22;20007;-95
2023/05/15 15:48:58;;;;;;;2.60;0.55;;;19.60;52.90;;;;;;6292284;22;19999;-95
2023/05/15 15:51:24;;;;;;;2.13;0.70;;;19.60;53.70;;;;;;6292473;22;20003;-95
2023/05/15 15:53:50;;;;;;;1.50;0.60;;;19.70;53.90;;;;;;6290930;22;20006;-96
2023/05/15 15:56:16;;;;;;;2.90;0.82;;;19.60;53.80;;;;;;6291587;22;20011;-96
2023/05/15 15:58:42;;;;;;;4.53;0.75;;;19.60;54.00;;;;;;6292803;22;20342;-95
2023/05/15 16:01:08;;;;;;;2.25;0.65;;;19.70;53.90;;;;;;6287787;22;20046;-96
2023/05/15 16:03:34;;;;;;;1.92;0.70;;;19.70;53.90;;;;;;6288046;22;20556;-95
2023/05/15 16:05:59;;;;;;;3.67;0.95;;;19.60;54.30;;;;;;6291446;22;19995;-95
2023/05/15 16:08:25;;;;;;;2.17;0.43;;;19.60;54.60;;;;;;6291200;22;20129;-96
2023/05/15 16:10:54;;;;;;;3.10;1.00;;;19.60;54.50;;;;;;6319139;22;20006;-96
2023/05/15 16:13:22;;;;;;;1.67;0.57;;;19.50;54.60;;;;;;6354676;22;20003;-96
2023/05/15 16:15:48;;;;;;;1.92;0.60;;;19.50;54.90;;;;;;6356904;22;20022;-96
2023/05/15 16:18:14;;;;;;;3.35;1.10;;;19.50;54.90;;;;;;6354590;22;20056;-95
2023/05/15 16:20:40;;;;;;;2.50;0.60;;;19.50;54.90;;;;;;6324735;22;20011;-96
2023/05/15 16:23:08;;;;;;;3.00;0.50;;;19.50;55.10;;;;;;6349615;22;20081;-96
2023/05/15 16:25:35;;;;;;;3.72;0.85;;;19.60;55.30;;;;;;6355165;22;20002;-96
2023/05/15 16:28:03;;;;;;;3.05;0.63;;;19.50;55.00;;;;;;6351211;22;20006;-96
2023/05/15 16:30:30;;;;;;;3.85;0.80;;;19.50;54.80;;;;;;6348990;22;19999;-96
2023/05/15 16:32:56;;;;;;;3.25;0.85;;;19.40;54.70;;;;;;6296969;22;20493;-96
2023/05/15 16:35:22;;;;;;;1.67;0.50;;;19.40;54.80;;;;;;6347329;22;20010;-95
2023/05/15 16:37:48;;;;;;;2.00;0.60;;;19.50;54.90;;;;;;6349858;22;20090;-96
2023/05/15 16:40:14;;;;;;;2.15;0.90;;;19.50;54.80;;;;;;6350776;22;20007;-95
2023/05/15 16:42:42;;;;;;;4.63;0.80;;;19.50;54.50;;;;;;6350577;22;20041;-96
2023/05/15 16:45:08;;;;;;;1.58;0.73;;;19.40;54.70;;;;;;6348929;22;20003;-96
2023/05/15 16:47:36;;;;;;;2.33;0.93;;;19.30;54.90;;;;;;6348535;22;20048;-95
2023/05/15 16:50:06;;;;;;;4.30;1.08;;;19.20;55.00;;;;;;6348652;22;19999;-95
2023/05/15 16:52:32;;;;;;;3.35;0.80;;;19.20;55.40;;;;;;6361315;22;19999;-95
2023/05/15 16:54:58;;;;;;;5.18;0.85;;;19.10;55.90;;;;;;6350205;22;20013;-96
2023/05/15 16:57:24;;;;;;;7.40;1.75;;;19.10;56.40;;;;;;6344552;22;20003;-96
2023/05/15 16:59:53;;;;;;;6.15;1.10;;;19.00;56.70;;;;;;6344148;22;20002;-96
2023/05/15 17:02:21;;;;;;;5.30;1.13;;;19.00;57.10;;;;;;6347172;22;20014;-96
2023/05/15 17:04:47;;;;;;;5.30;1.40;;;19.00;57.30;;;;;;6347774;22;19999;-96
2023/05/15 17:07:12;;;;;;;6.72;0.75;;;18.80;57.00;;;;;;6325938;22;20010;-96
2023/05/15 17:09:41;;;;;;;4.50;1.05;;;18.70;56.90;;;;;;6351712;22;20029;-96
2023/05/15 17:12:07;;;;;;;5.47;0.98;;;18.60;57.00;;;;;;6350012;22;20015;-94
2023/05/15 17:14:48;;;;;;;3.28;1.17;;;18.50;57.20;;;;;;6355429;22;19999;-96
2023/05/15 17:17:46;;;;;;;5.90;1.13;;;18.60;57.70;;;;;;6364653;22;19998;-95
2023/05/15 17:20:39;;;;;;;5.05;0.90;;;18.60;58.10;;;;;;6357202;22;20013;-96
2023/05/15 17:24:08;;;;;;;4.40;0.90;;;18.60;58.20;;;;;;6367869;22;20061;-96
2023/05/15 17:26:45;;;;;;;4.07;1.08;;;18.60;58.30;;;;;;6365947;22;20007;-96
2023/05/15 17:29:20;;;;;;;4.95;0.73;;;18.60;58.30;;;;;;6366393;22;20009;-95
2023/05/15 17:32:08;;;;;;;4.70;1.00;;;18.50;58.50;;;;;;6338186;22;20085;-95
2023/05/15 17:34:39;;;;;;;8.25;1.33;;;18.40;58.70;;;;;;6363466;22;20007;-95
2023/05/15 17:37:08;;;;;;;5.30;1.17;;;18.40;59.10;;;;;;6337986;22;20009;-96
2023/05/15 17:39:38;;;;;;;5.15;1.58;;;18.20;59.40;;;;;;6362092;22;20050;-96
2023/05/15 17:42:09;;;;;;;6.43;1.48;;;18.10;59.80;;;;;;6357378;22;20046;-96
2023/05/15 17:44:38;;;;;;;3.88;1.17;;;18.00;60.10;;;;;;6332354;22;20112;-95
2023/05/15 17:47:05;;;;;;;6.72;0.93;;;18.00;60.40;;;;;;6358332;22;19991;-96
2023/05/15 17:49:36;;;;;;;3.60;0.80;;;17.90;60.60;;;;;;6356512;22;20078;-93
2023/05/15 17:52:04;;;;;;;4.07;1.17;;;17.70;60.90;;;;;;6354759;22;20003;-94
2023/05/15 17:54:33;;;;;;;4.93;0.82;;;17.40;61.20;;;;;;6355061;22;20006;-95
2023/05/15 17:57:00;;;;;;;5.93;1.20;;;17.20;61.70;;;;;;6357243;22;20062;-94
2023/05/15 17:59:26;;;;;;;7.28;1.13;;;17.00;62.10;;;;;;6352933;22;20412;-95
2023/05/15 18:01:54;;;;;;;8.10;1.60;;;16.90;62.40;;;;;;6323529;22;20109;-96
2023/05/15 18:04:22;;;;;;;9.70;1.20;;;16.80;62.80;;;;;;6326705;22;20010;-94
2023/05/15 18:06:48;;;;;;;5.75;1.38;;;16.70;63.10;;;;;;6354340;22;20128;-95
2023/05/15 18:09:14;;;;;;;5.15;0.90;;;16.60;63.40;;;;;;6354117;22;20007;-95
2023/05/15 18:11:40;;;;;;;7.10;0.90;;;16.60;63.50;;;;;;6353243;22;20514;-94
2023/05/15 18:14:06;;;;;;;4.95;0.85;;;16.50;63.40;;;;;;6350741;22;20491;-94
2023/05/15 18:16:32;;;;;;;7.15;1.30;;;16.40;63.50;;;;;;6356122;22;19990;-94
2023/05/15 18:18:59;;;;;;;6.10;1.42;;;16.30;63.80;;;;;;6356430;22;20007;-93
2023/05/15 18:21:25;;;;;;;6.18;1.08;;;16.30;64.00;;;;;;6347474;22;20007;-94
2023/05/15 18:23:51;;;;;;;4.82;1.10;;;16.20;64.20;;;;;;6355749;22;20014;-95
2023/05/15 18:26:17;;;;;;;4.72;1.13;;;16.00;64.30;;;;;;6355608;22;19999;-94
2023/05/15 18:28:43;;;;;;;6.75;0.98;;;15.90;64.60;;;;;;6349060;22;20045;-96
2023/05/15 18:31:09;;;;;;;7.60;1.67;;;15.80;64.80;;;;;;6321452;22;20039;-96
2023/05/15 18:33:36;;;;;;;7.63;1.10;;;15.80;65.30;;;;;;6348985;22;20098;-95
2023/05/15 18:36:02;;;;;;;6.22;1.08;;;15.70;65.50;;;;;;6350599;22;20003;-96
2023/05/15 18:38:28;;;;;;;5.72;1.10;;;15.60;65.70;;;;;;6350481;22;20045;-95
2023/05/15 18:40:54;;;;;;;7.00;0.95;;;15.50;66.10;;;;;;6350651;22;20036;-96
2023/05/15 18:43:20;;;;;;;7.05;0.95;;;15.30;66.40;;;;;;6351733;22;20007;-94
2023/05/15 18:45:47;;;;;;;5.50;1.13;;;15.20;66.90;;;;;;6350461;22;20003;-96
2023/05/15 18:48:26;;;;;;;4.80;1.10;;;15.00;67.20;;;;;;6350940;22;20006;-96
2023/05/15 18:51:02;;;;;;;8.98;1.10;;;14.80;67.70;;;;;;6363892;22;19998;-95
2023/05/15 18:53:28;;;;;;;10.93;1.30;;;14.60;68.10;;;;;;6365631;22;20018;-94
2023/05/15 18:55:54;;;;;;;5.93;1.38;;;14.50;68.60;;;;;;6355418;22;20062;-94
2023/05/15 18:58:20;;;;;;;6.13;1.17;;;14.30;69.10;;;;;;6357635;22;20014;-95
2023/05/15 19:00:46;;;;;;;8.20;1.20;;;14.20;69.50;;;;;;6364856;22;20003;-96
2023/05/15 19:03:12;;;;;;;5.00;1.27;;;14.10;70.00;;;;;;6364459;22;19995;-96
2023/05/15 19:05:38;;;;;;;5.47;1.00;;;14.00;70.30;;;;;;6365548;22;19991;-95
2023/05/15 19:08:03;;;;;;;3.95;1.02;;;13.90;70.60;;;;;;6363549;22;20015;-95
2023/05/15 19:10:29;;;;;;;6.22;1.40;;;13.80;70.80;;;;;;6362900;22;20022;-96
2023/05/15 19:12:57;;;;;;;2.92;0.80;;;13.70;71.10;;;;;;6363318;22;20083;-95
2023/05/15 19:15:23;;;;;;;8.18;1.40;;;13.50;71.40;;;;;;6357554;22;20002;-95
2023/05/15 19:17:49;;;;;;;10.15;1.80;;;13.40;71.80;;;;;;6350699;22;20072;-95
2023/05/15 19:20:15;;;;;;;12.30;1.65;;;13.30;72.20;;;;;;6348231;22;20499;-96
2023/05/15 19:22:40;;;;;;;8.52;1.30;;;13.30;72.60;;;;;;6343779;22;20007;-95
2023/05/15 19:25:07;;;;;;;12.30;2.00;;;13.20;72.70;;;;;;6342002;22;20086;-95
2023/05/15 19:27:33;;;;;;;9.95;1.77;;;13.10;73.00;;;;;;6341878;22;20010;-95
2023/05/15 19:30:01;;;;;;;5.38;1.67;;;13.10;73.30;;;;;;6344169;22;20128;-96
2023/05/15 19:32:26;;;;;;;10.10;1.30;;;13.00;73.50;;;;;;6342546;22;20011;-96
2023/05/15 19:34:52;;;;;;;10.63;1.45;;;13.00;73.80;;;;;;6345739;22;20415;-95
2023/05/15 19:37:18;;;;;;;8.57;1.38;;;12.90;74.00;;;;;;6349568;22;20026;-96
2023/05/15 19:39:44;;;;;;;4.82;1.05;;;12.90;74.20;;;;;;6323422;22;20003;-96
2023/05/15 19:42:10;;;;;;;8.15;1.00;;;12.80;74.40;;;;;;6343954;22;20022;-96
2023/05/15 19:44:38;;;;;;;6.50;1.13;;;12.80;74.80;;;;;;6314828;22;20059;-96
2023/05/15 19:47:07;;;;;;;7.22;1.02;;;12.70;75.10;;;;;;6341071;22;20442;-95
2023/05/15 19:49:44;;;;;;;5.07;0.85;;;12.60;75.30;;;;;;6342253;22;20088;-96
2023/05/15 19:52:13;;;;;;;13.40;1.20;;;12.50;75.70;;;;;;6357116;22;20329;-96
2023/05/15 19:54:40;;;;;;;7.05;1.10;;;12.50;76.00;;;;;;6343018;22;20311;-96
2023/05/15 19:57:05;;;;;;;8.48;1.20;;;12.40;76.10;;;;;;6341926;22;20028;-96
2023/05/15 19:59:31;;;;;;;7.38;1.55;;;12.30;76.20;;;;;;6341086;22;20053;-96
2023/05/15 20:01:57;;;;;;;10.52;1.58;;;12.20;76.40;;;;;;6341874;22;20018;-96
2023/05/15 20:04:23;;;;;;;13.85;1.60;;;12.20;76.70;;;;;;6341798;22;20009;-96
2023/05/15 20:06:48;;;;;;;6.47;1.10;;;12.10;77.00;;;;;;6341806;22;20006;-95
2023/05/15 20:09:14;;;;;;;6.68;1.42;;;12.00;77.20;;;;;;6341157;22;20052;-95
2023/05/15 20:11:40;;;;;;;7.85;1.30;;;12.00;77.60;;;;;;6344549;22;20111;-96
2023/05/15 20:14:05;;;;;;;10.82;1.48;;;11.90;77.80;;;;;;6348563;22;20002;-96
2023/05/15 20:16:31;;;;;;;12.65;1.40;;;11.90;78.00;;;;;;6345052;22;20015;-95
2023/05/15 20:18:58;;;;;;;5.72;1.30;;;11.80;78.20;;;;;;6341480;22;20007;-95
2023/05/15 20:21:24;;;;;;;8.68;1.40;;;11.80;78.40;;;;;;6340434;22;20011;-95
2023/05/15 20:23:50;;;;;;;10.43;1.40;;;11.80;78.50;;;;;;6344042;22;20388;-95
2023/05/15 20:26:17;;;;;;;8.90;1.63;;;11.70;78.60;;;;;;6342361;22;20006;-96
2023/05/15 20:28:43;;;;;;;5.63;1.33;;;11.70;78.80;;;;;;6341730;22;20011;-95
2023/05/15 20:31:10;;;;;;;7.22;1.23;;;11.60;79.20;;;;;;6343596;22;20013;-95
2023/05/15 20:33:36;;;;;;;5.20;1.08;;;11.60;79.50;;;;;;6341811;22;20422;-96
2023/05/15 20:36:02;;;;;;;9.02;1.40;;;11.50;79.70;;;;;;6341214;22;20611;-96
2023/05/15 20:38:28;;;;;;;7.47;1.30;;;11.40;80.00;;;;;;6340495;22;20447;-96
2023/05/15 20:40:55;;;;;;;7.18;1.27;;;11.40;80.30;;;;;;6340811;22;20003;-96
2023/05/15 20:43:21;;;;;;;9.00;1.50;;;11.30;80.40;;;;;;6340183;22;20011;-96
2023/05/15 20:45:46;;;;;;;9.50;1.25;;;11.20;80.60;;;;;;6339943;22;19999;-95
2023/05/15 20:48:12;;;;;;;13.18;1.70;;;11.20;80.70;;;;;;6340640;22;20010;-96
2023/05/15 20:50:39;;;;;;;8.30;1.60;;;11.10;80.90;;;;;;6346882;22;19995;-95
2023/05/15 20:53:07;;;;;;;10.27;1.30;;;11.10;81.00;;;;;;6355544;22;20007;-95
2023/05/15 20:55:34;;;;;;;8.07;1.27;;;11.10;81.30;;;;;;6340475;22;20088;-96
2023/05/15 20:58:00;;;;;;;7.57;1.63;;;11.10;81.50;;;;;;6340525;22;20460;-96
2023/05/15 21:00:26;;;;;;;9.75;1.40;;;11.10;81.60;;;;;;6341887;22;20097;-95
2023/05/15 21:02:51;;;;;;;6.95;1.83;;;11.10;81.60;;;;;;6346441;22;20014;-96
2023/05/15 21:05:17;;;;;;;9.65;1.65;;;11.00;81.70;;;;;;6345067;22;20003;-95
2023/05/15 21:07:43;;;;;;;15.98;1.50;;;11.00;81.90;;;;;;6341996;22;20081;-96
2023/05/15 21:10:09;;;;;;;9.27;1.48;;;10.90;81.90;;;;;;6339118;22;20005;-96
2023/05/15 21:12:35;;;;;;;5.22;1.25;;;10.90;82.20;;;;;;6316082;22;20007;-95
2023/05/15 21:15:01;;;;;;;8.70;1.42;;;10.90;82.50;;;;;;6315286;22;20024;-96
2023/05/15 21:17:27;;;;;;;9.48;1.42;;;10.80;82.50;;;;;;6315737;22;20007;-94
2023/05/15 21:19:53;;;;;;;8.48;2.10;;;10.80;82.70;;;;;;6316082;22;20002;-96
2023/05/15 21:22:18;;;;;;;9.40;2.65;;;10.70;82.90;;;;;;6317386;22;20021;-95
2023/05/15 21:24:45;;;;;;;10.05;1.40;;;10.70;83.20;;;;;;6317722;22;20010;-95
2023/05/15 21:27:10;;;;;;;9.80;1.75;;;10.60;83.50;;;;;;6316612;22;20007;-95
2023/05/15 21:29:37;;;;;;;6.72;1.67;;;10.60;83.80;;;;;;6317123;22;20003;-96
2023/05/15 21:32:05;;;;;;;9.27;1.42;;;10.60;84.00;;;;;;6313567;22;20430;-96
2023/05/15 21:34:31;;;;;;;7.03;1.63;;;10.50;84.30;;;;;;6317200;22;20003;-96
2023/05/15 21:36:57;;;;;;;5.35;1.17;;;10.40;84.70;;;;;;6317028;22;20011;-96
2023/05/15 21:39:22;;;;;;;9.10;1.58;;;10.40;85.20;;;;;;6314846;22;20029;-95
2023/05/15 21:41:49;;;;;;;6.28;1.10;;;10.30;85.50;;;;;;6314069;22;20018;-96
2023/05/15 21:44:15;;;;;;;5.63;1.70;;;10.30;85.80;;;;;;6315860;22;20034;-96
2023/05/15 21:46:41;;;;;;;8.18;1.27;;;10.30;86.30;;;;;;6318346;22;20011;-95
2023/05/15 21:49:07;;;;;;;7.53;1.80;;;10.20;86.70;;;;;;6329072;22;20003;-96
2023/05/15 21:51:33;;;;;;;5.35;1.35;;;10.20;87.20;;;;;;6316121;22;20064;-95
2023/05/15 21:53:59;;;;;;;15.75;2.33;;;10.20;87.70;;;;;;6318035;22;20089;-96
2023/05/15 21:56:24;;;;;;;5.68;1.25;;;10.10;88.10;;;;;;6316786;22;20006;-96
2023/05/15 21:58:52;;;;;;;5.90;1.10;;;10.10;88.60;;;;;;6317306;22;20078;-96
2023/05/15 22:01:18;;;;;;;9.35;1.48;;;10.10;89.20;;;;;;6315700;22;20058;-96
2023/05/15 22:03:44;;;;;;;10.25;1.65;;;10.00;89.70;;;;;;6319043;22;20011;-95
2023/05/15 22:06:09;;;;;;;10.38;1.33;;;10.00;90.10;;;;;;6316252;22;20455;-95
2023/05/15 22:08:35;;;;;;;6.03;1.40;;;9.90;90.40;;;;;;6314292;22;20007;-96
2023/05/15 22:11:02;;;;;;;13.77;1.90;;;9.90;90.70;;;;;;6320015;22;20086;-95
2023/05/15 22:13:28;;;;;;;7.53;1.60;;;9.80;91.00;;;;;;6340635;22;20007;-96
2023/05/15 22:15:53;;;;;;;10.45;1.55;;;9.80;91.30;;;;;;6339492;22;20082;-96
2023/05/15 22:18:20;;;;;;;13.25;1.90;;;9.80;91.70;;;;;;6340516;22;20098;-96
2023/05/15 22:20:47;;;;;;;8.40;1.48;;;9.70;92.00;;;;;;6340207;22;20060;-96
2023/05/15 22:23:13;;;;;;;8.38;1.88;;;9.70;92.30;;;;;;6342571;22;20097;-96
2023/05/15 22:25:39;;;;;;;6.07;1.25;;;9.70;92.70;;;;;;6352354;22;20003;-95
2023/05/15 22:28:05;;;;;;;9.40;1.48;;;9.60;93.10;;;;;;6351593;22;20075;-96
2023/05/15 22:30:30;;;;;;;5.47;1.25;;;9.60;93.40;;;;;;6338541;22;20014;-96
2023/05/15 22:32:56;;;;;;;10.80;1.55;;;9.60;93.80;;;;;;6339310;22;20507;-95
2023/05/15 22:35:22;;;;;;;11.00;2.80;;;9.60;94.20;;;;;;6339193;22;19999;-95
2023/05/15 22:37:47;;;;;;;8.32;1.17;;;9.60;94.50;;;;;;6339982;22;20034;-95
2023/05/15 22:40:13;;;;;;;11.63;1.30;;;9.60;94.80;;;;;;6339312;22;19999;-95
2023/05/15 22:42:39;;;;;;;11.27;2.15;;;9.50;95.10;;;;;;6339115;22;20036;-95
2023/05/15 22:45:06;;;;;;;8.02;1.33;;;9.50;95.40;;;;;;6339132;22;20014;-95
2023/05/15 22:47:32;;;;;;;10.27;1.40;;;9.40;95.80;;;;;;6339699;22;20002;-96
2023/05/15 22:49:57;;;;;;;10.27;1.60;;;9.40;96.30;;;;;;6342163;22;20010;-96
2023/05/15 22:52:24;;;;;;;13.05;1.35;;;9.40;96.60;;;;;;6359568;22;20002;-95
2023/05/15 22:55:11;;;;;;;12.55;2.08;;;9.30;96.90;;;;;;6340412;22;20006;-96
2023/05/15 22:57:38;;;;;;;5.97;1.50;;;9.30;97.40;;;;;;6340253;22;20007;-96
2023/05/15 23:00:06;;;;;;;7.70;1.52;;;9.30;97.90;;;;;;6313534;22;20011;-95
2023/05/15 23:02:33;;;;;;;9.75;1.45;;;9.30;98.40;;;;;;6312608;22;20019;-95
2023/05/15 23:04:58;;;;;;;10.40;1.90;;;9.30;98.80;;;;;;6338797;22;20009;-96
2023/05/15 23:07:44;;;;;;;12.13;1.60;;;9.30;99.10;;;;;;6340623;22;20085;-96
2023/05/15 23:10:10;;;;;;;7.43;1.60;;;9.30;99.60;;;;;;6340777;22;19995;-96